• Join FlightAware (Why Join?)
  • Login
  • US Flag 
02:49AM EDT


 

Airport Tracker/Info


-or-


 

Live Flight TrackerFlight Track Log ✈ SWA407 ✈ 23-Apr-2013 ✈ KMCO - KATL

Flight Track Log - Related Links

Times and Time Zones

All times are in EDT time to prevent confusion due to time zone crossing. See the SWA407 flight status page for this flight to view local times or setup timezone preferences in your user account.

Time Position Orientation Groundspeed Altitude Reporting Facility
EDT Latitude Longitude Course Direction KTS MPH feet Rate Location/Type
03:41PM 28.4333 -81.3000 41° Northeast 153 176 700  Level Orlando TRACON
03:41PM 28.4500 -81.2833 41° Northeast 168 193 2,100 3,540 Climbing Orlando TRACON
03:43PM 28.5000 -81.2667 16° North 209 241 6,400 3,120 Climbing Orlando TRACON
03:43PM 28.5667 -81.2333 24° Northeast 288 331 8,100 1,620 Climbing Orlando TRACON
03:45PM 28.6994 -81.3092 333° Northwest 285 328 11,200 1,920 Climbing Jacksonville Center
03:46PM 28.7731 -81.3647 327° Northwest 295 339 14,300 3,120 Climbing Jacksonville Center
03:47PM 28.8553 -81.4275 326° Northwest 329 379 17,500 3,120 Climbing Jacksonville Center
03:48PM 28.9536 -81.4594 344° North 344 396 20,600 3,180 Climbing Jacksonville Center
03:49PM 29.0564 -81.4958 343° North 369 425 24,000 3,060 Climbing Jacksonville Center
03:50PM 29.1611 -81.5300 344° North 381 438 26,800 2,460 Climbing Jacksonville Center
03:51PM 29.2556 -81.5644 342° North 386 444 28,900 2,280 Climbing Jacksonville Center
03:52PM 29.3622 -81.6036 342° North 391 450 31,500 2,340 Climbing Jacksonville Center
03:53PM 29.4733 -81.6378 345° North 396 456 33,600 1,740 Climbing Jacksonville Center
03:54PM 29.5800 -81.6747 343° North 402 463 35,000 660 Climbing Jacksonville Center
03:55PM 29.6869 -81.7117 343° North 402 463 35,000  Level Jacksonville Center
03:56PM 29.7958 -81.7486 344° North 407 468 35,000  Level Jacksonville Center
03:57PM 29.9047 -81.7881 343° North 407 468 35,000  Level Jacksonville Center
03:58PM 30.0156 -81.8250 344° North 401 461 35,000  Level Jacksonville Center
03:59PM 30.1244 -81.8575 346° North 401 461 35,000  Level Jacksonville Center
04:00PM 30.2375 -81.8900 346° North 401 461 35,000  Level Jacksonville Center
04:01PM 30.3564 -81.8694 North 412 474 35,000  Level Jacksonville Center
04:02PM 30.4753 -81.8514 North 417 480 35,000  Level Jacksonville Center
04:03PM 30.6086 -81.8378 North 432 497 35,000  Level Jacksonville Center
04:04PM 30.7278 -81.8244 North 432 497 35,000  Level Jacksonville Center
04:05PM 30.8325 -81.8717 339° North 401 461 35,000  Level Jacksonville Center
04:06PM 30.9083 -81.9675 313° West 384 442 35,000  Level Jacksonville Center
04:07PM 30.9819 -82.0639 312° West 389 448 35,000  Level Jacksonville Center
04:08PM 31.0642 -82.1503 318° Northwest 389 448 35,000  Level Jacksonville Center
04:09PM 31.1564 -82.2225 326° Northwest 394 453 35,000  Level Jacksonville Center
04:11PM 31.3483 -82.2981 341° North 417 480 35,000  Level Atlanta Center
04:12PM 31.4594 -82.3444 340° North 417 480 35,000  Level Atlanta Center
04:13PM 31.5708 -82.3936 339° North 423 487 35,000  Level Atlanta Center
04:14PM 31.6800 -82.4428 339° North 423 487 35,000  Level Atlanta Center
04:15PM 31.7892 -82.4897 340° North 418 481 35,000  Level Atlanta Center
04:16PM 31.9003 -82.5369 340° North 418 481 35,000  Level Atlanta Center
04:17PM 32.0072 -82.5864 339° North 418 481 35,000  Level Atlanta Center
04:18PM 32.1164 -82.6386 338° Northwest 418 481 35,000 -900 Level Atlanta Center
04:19PM 32.2008 -82.7233 320° Northwest 402 463 33,300 -1,440 Descending Atlanta Center
04:20PM 32.2831 -82.8128 317° Northwest 402 463 32,200 -1,080 Descending Atlanta Center
04:21PM 32.3675 -82.9028 318° Northwest 402 463 31,200 -1,080 Descending Atlanta Center
04:22PM 32.4539 -82.9928 319° Northwest 407 468 30,100 -1,140 Descending Atlanta Center
04:23PM 32.5422 -83.0853 319° Northwest 413 475 29,000 -1,080 Descending Atlanta Center
04:24PM 32.6244 -83.1756 317° Northwest 413 475 28,000 -1,080 Descending Atlanta Center
04:26PM 32.7179 -83.2894 314° West  Level Estimated
04:26PM 32.8050 -83.3667 314° West 425 489 25,800  Level Atlanta Center
04:27PM 32.8850 -83.4550 317° Northwest 412 474 24,500 -1,680 Descending Atlanta Center
04:28PM 32.9644 -83.5411 318° Northwest 394 453 22,500 -2,220 Descending Atlanta Center
04:29PM 33.0422 -83.6225 319° Northwest 383 441 20,100 -2,640 Descending Atlanta Center
04:30PM 33.1111 -83.6942 319° Northwest 364 419 17,300 -2,760 Descending Atlanta Center
04:31PM 33.1500 -83.7333 320° Northwest 367 422 16,200 -2,340 Descending Atlanta TRACON
04:32PM 33.2167 -83.8167 314° West 354 407 14,000 -1,140 Descending Atlanta TRACON
04:33PM 33.2833 -83.9000 314° West 333 383 14,000 -360 Level Atlanta TRACON
04:33PM 33.3078 -83.9469 302° West 339 390 13,500 -960 Descending Atlanta Center
04:34PM 33.3706 -84.0414 309° West 333 383 12,500 -780 Descending Atlanta Center
04:35PM 33.4206 -84.1233 306° West 322 371 12,000 -420 Descending Atlanta Center
04:36PM 33.4333 -84.1500 300° West 268 308 12,000  Level Atlanta TRACON
04:37PM 33.4833 -84.2167 312° West 231 266 12,000  Level Atlanta TRACON
04:38PM 33.5167 -84.2667 309° West 231 266 12,000 -600 Level Atlanta TRACON
04:39PM 33.5500 -84.3333 301° West 238 274 10,900 -1,200 Descending Atlanta TRACON
04:40PM 33.5500 -84.4167 270° West 240 276 9,600 -1,200 Descending Atlanta TRACON
04:41PM 33.5500 -84.5000 270° West 233 268 8,400 -1,140 Descending Atlanta TRACON
04:42PM 33.5500 -84.5667 270° West 222 255 7,400 -1,200 Descending Atlanta TRACON
04:43PM 33.5500 -84.6500 270° West 228 262 6,000 -1,200 Descending Atlanta TRACON
04:44PM 33.6000 -84.6667 344° North 237 273 5,000 -900 Descending Atlanta TRACON
04:45PM 33.6333 -84.6167 51° Northeast 185 213 4,300 -1,020 Descending Atlanta TRACON
04:46PM 33.6333 -84.5500 90° East 184 212 3,100 -1,200 Descending Atlanta TRACON
04:47PM 33.6333 -84.5000 90° East 150 173 1,900 -1,140 Descending Atlanta TRACON
04:49PM 33.6367 -84.4279 64° Northeast  Level Estimated
04:56PM 33.6367 -84.4279 64° Northeast  Level Estimated